sensor_id;sensor_type;location;lat;lon;timestamp;noise_LAeq;noise_LA_min;noise_LA_max;noise_LA01;noise_LA95
77729;Laerm;68312;53.502;10.030;2023-05-15T00:00:41;45.64;40.37;55.33;;
77729;Laerm;68312;53.502;10.030;2023-05-15T00:03:07;42.89;37.70;47.21;;
77729;Laerm;68312;53.502;10.030;2023-05-15T00:05:32;43.70;39.33;47.87;;
77729;Laerm;68312;53.502;10.030;2023-05-15T00:07:58;45.34;39.94;50.20;;
77729;Laerm;68312;53.502;10.030;2023-05-15T00:10:23;44.75;38.96;50.03;;
77729;Laerm;68312;53.502;10.030;2023-05-15T00:12:49;42.82;39.06;47.93;;
77729;Laerm;68312;53.502;10.030;2023-05-15T00:15:14;44.22;39.25;49.46;;
77729;Laerm;68312;53.502;10.030;2023-05-15T00:17:40;43.73;38.08;50.56;;
77729;Laerm;68312;53.502;10.030;2023-05-15T00:20:06;45.40;41.67;49.50;;
77729;Laerm;68312;53.502;10.030;2023-05-15T00:22:31;45.67;41.74;50.12;;
77729;Laerm;68312;53.502;10.030;2023-05-15T00:24:57;44.22;39.74;49.84;;
77729;Laerm;68312;53.502;10.030;2023-05-15T00:27:22;43.84;38.98;49.75;;
77729;Laerm;68312;53.502;10.030;2023-05-15T00:29:48;43.82;38.28;49.28;;
77729;Laerm;68312;53.502;10.030;2023-05-15T00:32:13;44.16;38.52;53.70;;
77729;Laerm;68312;53.502;10.030;2023-05-15T00:34:39;44.66;40.43;51.26;;
77729;Laerm;68312;53.502;10.030;2023-05-15T00:37:04;44.60;39.51;50.36;;
77729;Laerm;68312;53.502;10.030;2023-05-15T00:39:29;43.79;39.47;50.64;;
77729;Laerm;68312;53.502;10.030;2023-05-15T00:41:57;43.40;39.52;49.40;;
77729;Laerm;68312;53.502;10.030;2023-05-15T00:44:25;44.65;40.23;54.13;;
77729;Laerm;68312;53.502;10.030;2023-05-15T00:46:53;43.56;39.23;49.51;;
77729;Laerm;68312;53.502;10.030;2023-05-15T00:49:22;43.33;39.12;47.34;;
77729;Laerm;68312;53.502;10.030;2023-05-15T00:51:49;42.99;38.22;49.17;;
77729;Laerm;68312;53.502;10.030;2023-05-15T00:54:15;45.40;39.69;50.60;;
77729;Laerm;68312;53.502;10.030;2023-05-15T00:56:44;45.44;41.06;52.12;;
77729;Laerm;68312;53.502;10.030;2023-05-15T00:59:11;45.52;41.05;51.34;;
77729;Laerm;68312;53.502;10.030;2023-05-15T01:01:37;45.27;39.24;54.94;;
77729;Laerm;68312;53.502;10.030;2023-05-15T01:04:03;46.85;42.54;61.99;;
77729;Laerm;68312;53.502;10.030;2023-05-15T01:06:30;47.40;41.21;56.48;;
77729;Laerm;68312;53.502;10.030;2023-05-15T01:08:59;45.78;40.54;53.42;;
77729;Laerm;68312;53.502;10.030;2023-05-15T01:11:27;44.11;40.12;49.19;;
77729;Laerm;68312;53.502;10.030;2023-05-15T01:13:53;45.42;39.89;59.46;;
77729;Laerm;68312;53.502;10.030;2023-05-15T01:16:20;46.53;41.01;52.20;;
77729;Laerm;68312;53.502;10.030;2023-05-15T01:18:46;46.85;42.65;55.57;;
77729;Laerm;68312;53.502;10.030;2023-05-15T01:27:29;45.45;40.89;51.63;;
77729;Laerm;68312;53.502;10.030;2023-05-15T01:30:31;45.88;41.17;54.30;;
77729;Laerm;68312;53.502;10.030;2023-05-15T01:33:37;46.06;41.02;59.38;;
77729;Laerm;68312;53.502;10.030;2023-05-15T01:36:25;45.39;40.23;57.41;;
77729;Laerm;68312;53.502;10.030;2023-05-15T01:39:00;46.28;41.33;55.84;;
77729;Laerm;68312;53.502;10.030;2023-05-15T01:41:50;46.97;42.65;54.98;;
77729;Laerm;68312;53.502;10.030;2023-05-15T01:44:27;45.79;40.79;57.50;;
77729;Laerm;68312;53.502;10.030;2023-05-15T01:46:58;44.99;40.00;50.09;;
77729;Laerm;68312;53.502;10.030;2023-05-15T01:49:27;45.89;41.12;51.36;;
77729;Laerm;68312;53.502;10.030;2023-05-15T01:52:23;45.05;41.43;52.41;;
77729;Laerm;68312;53.502;10.030;2023-05-15T01:54:51;45.08;40.89;50.84;;
77729;Laerm;68312;53.502;10.030;2023-05-15T01:57:21;45.24;40.30;60.67;;
77729;Laerm;68312;53.502;10.030;2023-05-15T01:59:49;45.14;40.23;49.30;;
77729;Laerm;68312;53.502;10.030;2023-05-15T02:02:17;44.66;40.84;48.94;;
77729;Laerm;68312;53.502;10.030;2023-05-15T02:04:44;44.54;41.01;50.04;;
77729;Laerm;68312;53.502;10.030;2023-05-15T02:07:14;45.99;41.92;50.64;;
77729;Laerm;68312;53.502;10.030;2023-05-15T02:09:42;45.77;41.19;50.91;;
77729;Laerm;68312;53.502;10.030;2023-05-15T02:12:10;47.45;42.31;59.06;;
77729;Laerm;68312;53.502;10.030;2023-05-15T02:14:38;45.75;42.09;53.46;;
77729;Laerm;68312;53.502;10.030;2023-05-15T02:17:04;44.72;41.40;51.60;;
77729;Laerm;68312;53.502;10.030;2023-05-15T02:19:30;46.33;41.50;52.62;;
77729;Laerm;68312;53.502;10.030;2023-05-15T02:21:55;47.74;43.63;55.72;;
77729;Laerm;68312;53.502;10.030;2023-05-15T02:24:21;47.00;43.10;59.91;;
77729;Laerm;68312;53.502;10.030;2023-05-15T02:27:21;48.19;44.77;52.70;;
77729;Laerm;68312;53.502;10.030;2023-05-15T02:30:19;48.26;44.19;53.54;;
77729;Laerm;68312;53.502;10.030;2023-05-15T02:36:08;48.84;44.08;57.43;;
77729;Laerm;68312;53.502;10.030;2023-05-15T02:38:54;49.32;44.50;57.04;;
77729;Laerm;68312;53.502;10.030;2023-05-15T02:41:21;49.26;46.17;55.78;;
77729;Laerm;68312;53.502;10.030;2023-05-15T02:43:51;51.09;46.24;61.58;;
77729;Laerm;68312;53.502;10.030;2023-05-15T02:46:20;50.37;45.66;59.23;;
77729;Laerm;68312;53.502;10.030;2023-05-15T02:48:47;50.88;46.15;58.52;;
77729;Laerm;68312;53.502;10.030;2023-05-15T02:51:13;52.29;47.23;67.78;;
77729;Laerm;68312;53.502;10.030;2023-05-15T02:53:41;52.08;44.97;65.73;;
77729;Laerm;68312;53.502;10.030;2023-05-15T02:56:08;51.70;45.82;65.42;;
77729;Laerm;68312;53.502;10.030;2023-05-15T02:58:34;51.38;45.51;63.19;;
77729;Laerm;68312;53.502;10.030;2023-05-15T03:00:59;51.77;45.66;61.97;;
77729;Laerm;68312;53.502;10.030;2023-05-15T03:03:25;52.87;45.92;64.22;;
77729;Laerm;68312;53.502;10.030;2023-05-15T03:05:51;53.22;46.84;65.68;;
77729;Laerm;68312;53.502;10.030;2023-05-15T03:08:16;51.68;45.55;65.40;;
77729;Laerm;68312;53.502;10.030;2023-05-15T03:10:41;52.23;47.04;65.98;;
77729;Laerm;68312;53.502;10.030;2023-05-15T03:13:07;49.92;45.58;62.24;;
77729;Laerm;68312;53.502;10.030;2023-05-15T03:15:32;49.40;45.61;60.71;;
77729;Laerm;68312;53.502;10.030;2023-05-15T03:17:58;49.37;45.83;53.92;;
77729;Laerm;68312;53.502;10.030;2023-05-15T03:20:24;50.31;46.17;58.85;;
77729;Laerm;68312;53.502;10.030;2023-05-15T03:22:49;50.29;46.58;58.66;;
77729;Laerm;68312;53.502;10.030;2023-05-15T03:25:15;51.32;47.81;58.75;;
77729;Laerm;68312;53.502;10.030;2023-05-15T03:27:41;52.40;47.84;63.92;;
77729;Laerm;68312;53.502;10.030;2023-05-15T03:30:08;51.25;47.34;60.06;;
77729;Laerm;68312;53.502;10.030;2023-05-15T03:32:33;50.96;47.67;56.26;;
77729;Laerm;68312;53.502;10.030;2023-05-15T03:34:59;50.77;47.41;54.71;;
77729;Laerm;68312;53.502;10.030;2023-05-15T03:37:24;51.83;48.29;55.05;;
77729;Laerm;68312;53.502;10.030;2023-05-15T03:39:49;51.73;47.43;72.77;;
77729;Laerm;68312;53.502;10.030;2023-05-15T03:42:15;51.19;47.07;61.84;;
77729;Laerm;68312;53.502;10.030;2023-05-15T03:44:40;50.05;46.16;56.00;;
77729;Laerm;68312;53.502;10.030;2023-05-15T03:47:06;49.89;46.98;55.40;;
77729;Laerm;68312;53.502;10.030;2023-05-15T03:49:31;50.66;46.69;63.35;;
77729;Laerm;68312;53.502;10.030;2023-05-15T03:51:57;51.23;48.14;55.15;;
77729;Laerm;68312;53.502;10.030;2023-05-15T03:54:22;51.56;48.41;60.35;;
77729;Laerm;68312;53.502;10.030;2023-05-15T03:56:48;51.51;48.39;56.60;;
77729;Laerm;68312;53.502;10.030;2023-05-15T03:59:13;51.49;48.46;56.48;;
77729;Laerm;68312;53.502;10.030;2023-05-15T04:01:42;51.56;47.76;57.36;;
77729;Laerm;68312;53.502;10.030;2023-05-15T04:04:07;51.34;48.14;63.68;;
77729;Laerm;68312;53.502;10.030;2023-05-15T04:06:33;51.60;47.49;60.06;;
77729;Laerm;68312;53.502;10.030;2023-05-15T04:08:58;50.98;46.74;62.21;;
77729;Laerm;68312;53.502;10.030;2023-05-15T04:11:23;50.44;46.77;56.12;;
77729;Laerm;68312;53.502;10.030;2023-05-15T04:13:49;51.53;47.29;67.66;;
77729;Laerm;68312;53.502;10.030;2023-05-15T04:16:14;51.05;47.65;58.24;;
77729;Laerm;68312;53.502;10.030;2023-05-15T04:18:40;51.01;47.84;55.56;;
77729;Laerm;68312;53.502;10.030;2023-05-15T04:21:05;52.19;47.58;61.17;;
77729;Laerm;68312;53.502;10.030;2023-05-15T04:23:31;51.14;47.16;60.84;;
77729;Laerm;68312;53.502;10.030;2023-05-15T04:25:56;52.39;47.08;64.02;;
77729;Laerm;68312;53.502;10.030;2023-05-15T04:28:22;49.57;46.40;56.78;;
77729;Laerm;68312;53.502;10.030;2023-05-15T04:30:47;55.31;45.67;70.56;;
77729;Laerm;68312;53.502;10.030;2023-05-15T04:33:13;48.32;45.23;53.85;;
77729;Laerm;68312;53.502;10.030;2023-05-15T04:35:39;47.93;44.77;54.23;;
77729;Laerm;68312;53.502;10.030;2023-05-15T04:38:04;48.95;44.28;63.51;;
77729;Laerm;68312;53.502;10.030;2023-05-15T04:40:31;47.81;44.70;53.25;;
77729;Laerm;68312;53.502;10.030;2023-05-15T04:42:56;50.46;45.76;62.98;;
77729;Laerm;68312;53.502;10.030;2023-05-15T04:45:22;48.76;44.55;58.29;;
77729;Laerm;68312;53.502;10.030;2023-05-15T04:47:47;47.53;43.50;58.68;;
77729;Laerm;68312;53.502;10.030;2023-05-15T04:50:12;47.50;44.31;53.66;;
77729;Laerm;68312;53.502;10.030;2023-05-15T04:52:38;46.39;42.43;59.63;;
77729;Laerm;68312;53.502;10.030;2023-05-15T04:55:04;46.13;42.06;63.53;;
77729;Laerm;68312;53.502;10.030;2023-05-15T04:57:30;46.27;41.91;54.06;;
77729;Laerm;68312;53.502;10.030;2023-05-15T04:59:55;45.96;41.41;55.76;;
77729;Laerm;68312;53.502;10.030;2023-05-15T05:02:22;50.21;41.74;72.70;;
77729;Laerm;68312;53.502;10.030;2023-05-15T05:04:49;45.96;40.76;57.40;;
77729;Laerm;68312;53.502;10.030;2023-05-15T05:07:15;46.94;40.78;58.83;;
77729;Laerm;68312;53.502;10.030;2023-05-15T05:09:41;46.93;40.92;56.15;;
77729;Laerm;68312;53.502;10.030;2023-05-15T05:12:07;49.23;39.69;63.80;;
77729;Laerm;68312;53.502;10.030;2023-05-15T05:14:33;44.27;39.20;58.29;;
77729;Laerm;68312;53.502;10.030;2023-05-15T05:16:59;43.78;38.90;56.47;;
77729;Laerm;68312;53.502;10.030;2023-05-15T05:19:25;44.47;38.66;58.61;;
77729;Laerm;68312;53.502;10.030;2023-05-15T05:21:50;43.46;38.15;57.15;;
77729;Laerm;68312;53.502;10.030;2023-05-15T05:24:15;44.40;38.43;58.05;;
77729;Laerm;68312;53.502;10.030;2023-05-15T05:26:44;43.17;38.16;53.59;;
77729;Laerm;68312;53.502;10.030;2023-05-15T05:29:10;51.95;41.85;64.25;;
77729;Laerm;68312;53.502;10.030;2023-05-15T05:31:35;52.32;41.48;63.13;;
77729;Laerm;68312;53.502;10.030;2023-05-15T05:34:01;45.42;38.18;57.77;;
77729;Laerm;68312;53.502;10.030;2023-05-15T05:36:29;45.98;37.56;56.11;;
77729;Laerm;68312;53.502;10.030;2023-05-15T05:38:55;45.24;36.35;59.90;;
77729;Laerm;68312;53.502;10.030;2023-05-15T05:41:20;40.39;35.83;60.90;;
77729;Laerm;68312;53.502;10.030;2023-05-15T05:43:46;41.89;36.02;53.89;;
77729;Laerm;68312;53.502;10.030;2023-05-15T05:46:12;41.54;36.32;54.24;;
77729;Laerm;68312;53.502;10.030;2023-05-15T05:48:37;43.26;36.81;55.03;;
77729;Laerm;68312;53.502;10.030;2023-05-15T05:51:03;43.94;39.79;51.95;;
77729;Laerm;68312;53.502;10.030;2023-05-15T05:53:28;47.79;37.09;63.82;;
77729;Laerm;68312;53.502;10.030;2023-05-15T05:55:55;41.77;36.56;52.86;;
77729;Laerm;68312;53.502;10.030;2023-05-15T05:58:20;42.41;36.44;54.60;;
77729;Laerm;68312;53.502;10.030;2023-05-15T06:00:46;44.70;36.20;60.54;;
77729;Laerm;68312;53.502;10.030;2023-05-15T06:03:11;46.15;36.81;59.68;;
77729;Laerm;68312;53.502;10.030;2023-05-15T06:05:40;43.51;35.95;63.93;;
77729;Laerm;68312;53.502;10.030;2023-05-15T06:08:05;42.38;36.71;57.74;;
77729;Laerm;68312;53.502;10.030;2023-05-15T06:10:30;42.59;37.00;57.03;;
77729;Laerm;68312;53.502;10.030;2023-05-15T06:12:56;46.60;37.27;66.08;;
77729;Laerm;68312;53.502;10.030;2023-05-15T06:15:22;44.04;37.19;56.21;;
77729;Laerm;68312;53.502;10.030;2023-05-15T06:17:47;42.23;37.29;54.59;;
77729;Laerm;68312;53.502;10.030;2023-05-15T06:20:14;42.20;37.90;52.85;;
77729;Laerm;68312;53.502;10.030;2023-05-15T06:22:39;46.34;37.68;64.17;;
77729;Laerm;68312;53.502;10.030;2023-05-15T06:25:06;42.97;37.56;54.11;;
77729;Laerm;68312;53.502;10.030;2023-05-15T06:27:33;41.10;37.59;58.23;;
77729;Laerm;68312;53.502;10.030;2023-05-15T06:29:58;50.39;38.45;61.59;;
77729;Laerm;68312;53.502;10.030;2023-05-15T06:32:25;40.63;36.72;51.60;;
77729;Laerm;68312;53.502;10.030;2023-05-15T06:34:50;43.98;37.23;62.69;;
77729;Laerm;68312;53.502;10.030;2023-05-15T06:37:16;40.13;36.02;48.56;;
77729;Laerm;68312;53.502;10.030;2023-05-15T06:39:41;42.48;36.29;55.63;;
77729;Laerm;68312;53.502;10.030;2023-05-15T06:42:07;49.89;36.78;66.48;;
77729;Laerm;68312;53.502;10.030;2023-05-15T06:44:32;48.02;37.11;61.14;;
77729;Laerm;68312;53.502;10.030;2023-05-15T06:46:58;45.27;37.04;61.05;;
77729;Laerm;68312;53.502;10.030;2023-05-15T06:49:26;45.59;36.92;66.12;;
77729;Laerm;68312;53.502;10.030;2023-05-15T06:51:51;49.73;36.95;62.38;;
77729;Laerm;68312;53.502;10.030;2023-05-15T06:54:18;43.92;37.45;58.25;;
77729;Laerm;68312;53.502;10.030;2023-05-15T06:56:43;47.02;37.21;64.24;;
77729;Laerm;68312;53.502;10.030;2023-05-15T06:59:09;44.06;36.87;54.94;;
77729;Laerm;68312;53.502;10.030;2023-05-15T07:01:34;44.66;36.78;56.47;;
77729;Laerm;68312;53.502;10.030;2023-05-15T07:04:00;42.38;35.37;53.59;;
77729;Laerm;68312;53.502;10.030;2023-05-15T07:06:29;48.38;35.07;73.89;;
77729;Laerm;68312;53.502;10.030;2023-05-15T07:08:54;43.51;36.04;57.54;;
77729;Laerm;68312;53.502;10.030;2023-05-15T07:11:20;50.89;35.24;67.88;;
77729;Laerm;68312;53.502;10.030;2023-05-15T07:13:45;42.10;35.21;58.86;;
77729;Laerm;68312;53.502;10.030;2023-05-15T07:16:13;41.15;35.79;52.20;;
77729;Laerm;68312;53.502;10.030;2023-05-15T07:18:39;41.92;37.06;58.39;;
77729;Laerm;68312;53.502;10.030;2023-05-15T07:21:04;40.93;37.28;52.57;;
77729;Laerm;68312;53.502;10.030;2023-05-15T07:23:30;39.57;36.44;50.82;;
77729;Laerm;68312;53.502;10.030;2023-05-15T07:25:55;39.22;35.58;51.49;;
77729;Laerm;68312;53.502;10.030;2023-05-15T07:28:21;40.46;35.32;55.72;;
77729;Laerm;68312;53.502;10.030;2023-05-15T07:30:47;45.02;34.90;61.65;;
77729;Laerm;68312;53.502;10.030;2023-05-15T07:33:12;43.65;36.00;61.25;;
77729;Laerm;68312;53.502;10.030;2023-05-15T07:35:38;41.07;35.99;53.38;;
77729;Laerm;68312;53.502;10.030;2023-05-15T07:38:03;41.57;34.42;61.76;;
77729;Laerm;68312;53.502;10.030;2023-05-15T07:40:29;40.28;33.70;52.75;;
77729;Laerm;68312;53.502;10.030;2023-05-15T07:42:54;41.07;33.67;57.99;;
77729;Laerm;68312;53.502;10.030;2023-05-15T07:45:20;38.98;34.44;60.37;;
77729;Laerm;68312;53.502;10.030;2023-05-15T07:47:47;43.21;35.87;60.18;;
77729;Laerm;68312;53.502;10.030;2023-05-15T07:50:14;49.35;35.49;65.61;;
77729;Laerm;68312;53.502;10.030;2023-05-15T07:52:40;42.81;36.48;56.57;;
77729;Laerm;68312;53.502;10.030;2023-05-15T07:55:06;42.99;37.50;53.28;;
77729;Laerm;68312;53.502;10.030;2023-05-15T07:57:32;41.72;37.44;50.29;;
77729;Laerm;68312;53.502;10.030;2023-05-15T07:59:57;42.87;37.39;57.83;;
77729;Laerm;68312;53.502;10.030;2023-05-15T08:02:23;41.48;37.39;53.28;;
77729;Laerm;68312;53.502;10.030;2023-05-15T08:04:51;44.05;37.29;57.80;;
77729;Laerm;68312;53.502;10.030;2023-05-15T08:07:17;42.73;37.64;54.87;;
77729;Laerm;68312;53.502;10.030;2023-05-15T08:09:42;40.78;36.85;53.72;;
77729;Laerm;68312;53.502;10.030;2023-05-15T08:12:20;39.41;36.42;50.19;;
77729;Laerm;68312;53.502;10.030;2023-05-15T08:14:52;41.67;37.07;53.95;;
77729;Laerm;68312;53.502;10.030;2023-05-15T08:17:18;40.78;35.18;59.68;;
77729;Laerm;68312;53.502;10.030;2023-05-15T08:19:44;39.81;35.75;52.14;;
77729;Laerm;68312;53.502;10.030;2023-05-15T08:22:09;41.79;37.03;56.89;;
77729;Laerm;68312;53.502;10.030;2023-05-15T08:24:35;41.23;36.63;51.81;;
77729;Laerm;68312;53.502;10.030;2023-05-15T08:27:00;40.44;36.72;48.96;;
77729;Laerm;68312;53.502;10.030;2023-05-15T08:29:26;42.85;37.65;53.84;;
77729;Laerm;68312;53.502;10.030;2023-05-15T08:31:51;42.15;37.72;53.63;;
77729;Laerm;68312;53.502;10.030;2023-05-15T08:34:17;42.77;36.84;56.81;;
77729;Laerm;68312;53.502;10.030;2023-05-15T08:36:43;42.75;37.00;54.03;;
77729;Laerm;68312;53.502;10.030;2023-05-15T08:39:09;41.18;36.20;55.78;;
77729;Laerm;68312;53.502;10.030;2023-05-15T08:41:51;40.59;35.79;54.58;;
77729;Laerm;68312;53.502;10.030;2023-05-15T08:44:22;49.71;37.82;70.23;;
77729;Laerm;68312;53.502;10.030;2023-05-15T08:46:48;51.01;38.40;66.63;;
77729;Laerm;68312;53.502;10.030;2023-05-15T08:49:35;47.40;38.28;62.32;;
77729;Laerm;68312;53.502;10.030;2023-05-15T08:52:04;49.91;37.50;61.75;;
77729;Laerm;68312;53.502;10.030;2023-05-15T08:54:29;49.17;38.21;61.16;;
77729;Laerm;68312;53.502;10.030;2023-05-15T08:56:56;46.86;37.88;61.83;;
77729;Laerm;68312;53.502;10.030;2023-05-15T08:59:25;41.73;37.94;54.93;;
77729;Laerm;68312;53.502;10.030;2023-05-15T09:01:51;41.62;38.09;64.47;;
77729;Laerm;68312;53.502;10.030;2023-05-15T09:04:16;45.95;36.77;59.31;;
77729;Laerm;68312;53.502;10.030;2023-05-15T09:06:43;47.68;36.81;65.41;;
77729;Laerm;68312;53.502;10.030;2023-05-15T09:09:09;40.93;37.29;46.87;;
77729;Laerm;68312;53.502;10.030;2023-05-15T09:11:36;41.47;37.16;51.56;;
77729;Laerm;68312;53.502;10.030;2023-05-15T09:14:02;43.05;37.67;56.23;;
77729;Laerm;68312;53.502;10.030;2023-05-15T09:16:28;50.88;38.06;67.99;;
77729;Laerm;68312;53.502;10.030;2023-05-15T09:18:57;41.39;35.95;52.70;;
77729;Laerm;68312;53.502;10.030;2023-05-15T09:21:29;45.54;36.27;61.48;;
77729;Laerm;68312;53.502;10.030;2023-05-15T09:24:22;43.79;37.69;56.32;;
77729;Laerm;68312;53.502;10.030;2023-05-15T09:27:06;42.02;37.53;52.08;;
77729;Laerm;68312;53.502;10.030;2023-05-15T09:29:37;45.09;37.32;61.45;;
77729;Laerm;68312;53.502;10.030;2023-05-15T09:32:07;41.70;37.78;53.58;;
77729;Laerm;68312;53.502;10.030;2023-05-15T09:34:37;41.07;37.34;47.45;;
77729;Laerm;68312;53.502;10.030;2023-05-15T09:37:07;42.97;37.58;52.11;;
77729;Laerm;68312;53.502;10.030;2023-05-15T09:39:41;50.63;37.01;70.43;;
77729;Laerm;68312;53.502;10.030;2023-05-15T09:42:13;50.06;37.87;59.72;;
77729;Laerm;68312;53.502;10.030;2023-05-15T09:44:44;45.91;41.66;57.58;;
77729;Laerm;68312;53.502;10.030;2023-05-15T09:47:12;47.64;42.45;59.29;;
77729;Laerm;68312;53.502;10.030;2023-05-15T09:49:42;46.84;41.51;56.98;;
77729;Laerm;68312;53.502;10.030;2023-05-15T09:52:09;45.92;38.86;61.41;;
77729;Laerm;68312;53.502;10.030;2023-05-15T09:54:36;49.96;39.18;60.79;;
77729;Laerm;68312;53.502;10.030;2023-05-15T09:57:11;47.20;40.07;58.50;;
77729;Laerm;68312;53.502;10.030;2023-05-15T09:59:47;44.79;39.36;54.24;;
77729;Laerm;68312;53.502;10.030;2023-05-15T10:02:28;47.81;40.35;56.33;;
77729;Laerm;68312;53.502;10.030;2023-05-15T10:04:56;45.74;38.98;60.59;;
77729;Laerm;68312;53.502;10.030;2023-05-15T10:07:34;45.66;39.63;59.29;;
77729;Laerm;68312;53.502;10.030;2023-05-15T10:10:03;47.50;38.90;60.03;;
77729;Laerm;68312;53.502;10.030;2023-05-15T10:12:30;42.09;38.04;52.58;;
77729;Laerm;68312;53.502;10.030;2023-05-15T10:15:00;50.34;37.74;63.94;;
77729;Laerm;68312;53.502;10.030;2023-05-15T10:17:30;49.13;37.46;64.18;;
77729;Laerm;68312;53.502;10.030;2023-05-15T10:19:58;48.42;38.18;64.93;;
77729;Laerm;68312;53.502;10.030;2023-05-15T10:22:29;50.97;36.79;77.45;;
77729;Laerm;68312;53.502;10.030;2023-05-15T10:25:47;45.75;37.94;71.09;;
77729;Laerm;68312;53.502;10.030;2023-05-15T10:28:16;46.89;37.46;69.30;;
77729;Laerm;68312;53.502;10.030;2023-05-15T10:30:43;49.26;40.92;74.28;;
77729;Laerm;68312;53.502;10.030;2023-05-15T10:33:11;47.47;40.06;72.57;;
77729;Laerm;68312;53.502;10.030;2023-05-15T10:35:39;48.57;39.36;71.13;;
77729;Laerm;68312;53.502;10.030;2023-05-15T10:38:05;47.55;38.34;66.57;;
77729;Laerm;68312;53.502;10.030;2023-05-15T10:40:37;49.20;38.05;74.53;;
77729;Laerm;68312;53.502;10.030;2023-05-15T10:43:05;48.46;38.12;59.51;;
77729;Laerm;68312;53.502;10.030;2023-05-15T10:45:34;43.84;38.85;56.34;;
77729;Laerm;68312;53.502;10.030;2023-05-15T10:48:01;45.73;39.18;56.61;;
77729;Laerm;68312;53.502;10.030;2023-05-15T10:50:27;43.83;37.92;55.33;;
77729;Laerm;68312;53.502;10.030;2023-05-15T10:52:54;44.91;39.17;56.03;;
77729;Laerm;68312;53.502;10.030;2023-05-15T10:55:22;50.97;39.69;62.87;;
77729;Laerm;68312;53.502;10.030;2023-05-15T10:57:48;45.03;40.05;58.80;;
77729;Laerm;68312;53.502;10.030;2023-05-15T11:00:32;45.36;39.79;57.72;;
77729;Laerm;68312;53.502;10.030;2023-05-15T11:02:59;44.49;39.17;57.65;;
77729;Laerm;68312;53.502;10.030;2023-05-15T11:05:25;45.23;38.75;59.90;;
77729;Laerm;68312;53.502;10.030;2023-05-15T11:10:44;43.83;38.82;56.12;;
77729;Laerm;68312;53.502;10.030;2023-05-15T11:13:09;42.97;39.66;58.36;;
77729;Laerm;68312;53.502;10.030;2023-05-15T11:15:43;47.95;40.47;61.74;;
77729;Laerm;68312;53.502;10.030;2023-05-15T11:18:10;43.76;39.74;54.52;;
77729;Laerm;68312;53.502;10.030;2023-05-15T11:23:27;44.16;39.92;53.99;;
77729;Laerm;68312;53.502;10.030;2023-05-15T11:25:55;44.41;40.76;59.15;;
77729;Laerm;68312;53.502;10.030;2023-05-15T11:28:24;45.05;40.62;58.39;;
77729;Laerm;68312;53.502;10.030;2023-05-15T11:30:58;44.18;39.92;54.78;;
77729;Laerm;68312;53.502;10.030;2023-05-15T11:33:29;45.21;40.85;51.61;;
77729;Laerm;68312;53.502;10.030;2023-05-15T11:35:59;44.89;38.43;58.96;;
77729;Laerm;68312;53.502;10.030;2023-05-15T11:38:26;44.52;38.09;59.19;;
77729;Laerm;68312;53.502;10.030;2023-05-15T11:40:57;42.31;39.19;54.04;;
77729;Laerm;68312;53.502;10.030;2023-05-15T11:43:34;43.48;40.10;55.63;;
77729;Laerm;68312;53.502;10.030;2023-05-15T11:46:07;44.71;40.09;52.38;;
77729;Laerm;68312;53.502;10.030;2023-05-15T11:48:45;44.55;40.51;54.14;;
77729;Laerm;68312;53.502;10.030;2023-05-15T11:51:21;44.58;40.96;57.09;;
77729;Laerm;68312;53.502;10.030;2023-05-15T11:53:49;45.51;40.92;62.36;;
77729;Laerm;68312;53.502;10.030;2023-05-15T11:56:21;45.31;40.49;57.51;;
77729;Laerm;68312;53.502;10.030;2023-05-15T11:58:49;45.68;41.05;56.56;;
77729;Laerm;68312;53.502;10.030;2023-05-15T12:01:15;47.36;41.73;60.83;;
77729;Laerm;68312;53.502;10.030;2023-05-15T12:03:40;45.27;41.30;52.80;;
77729;Laerm;68312;53.502;10.030;2023-05-15T12:06:06;46.97;40.67;62.00;;
77729;Laerm;68312;53.502;10.030;2023-05-15T12:08:36;44.36;39.89;56.27;;
77729;Laerm;68312;53.502;10.030;2023-05-15T12:11:04;42.84;38.78;53.76;;
77729;Laerm;68312;53.502;10.030;2023-05-15T12:13:31;46.27;38.04;62.69;;
77729;Laerm;68312;53.502;10.030;2023-05-15T12:15:59;47.21;38.74;63.15;;
77729;Laerm;68312;53.502;10.030;2023-05-15T12:18:24;41.84;38.18;54.71;;
77729;Laerm;68312;53.502;10.030;2023-05-15T12:20:54;42.16;38.38;63.06;;
77729;Laerm;68312;53.502;10.030;2023-05-15T12:23:24;45.12;38.37;59.04;;
77729;Laerm;68312;53.502;10.030;2023-05-15T12:25:58;45.91;40.20;59.14;;
77729;Laerm;68312;53.502;10.030;2023-05-15T12:28:26;45.60;41.49;59.29;;
77729;Laerm;68312;53.502;10.030;2023-05-15T12:30:53;44.37;40.13;54.26;;
77729;Laerm;68312;53.502;10.030;2023-05-15T12:33:19;43.94;39.36;56.39;;
77729;Laerm;68312;53.502;10.030;2023-05-15T12:35:55;43.47;39.83;51.92;;
77729;Laerm;68312;53.502;10.030;2023-05-15T12:38:22;44.99;39.86;60.84;;
77729;Laerm;68312;53.502;10.030;2023-05-15T12:40:51;48.68;39.22;67.11;;
77729;Laerm;68312;53.502;10.030;2023-05-15T12:43:17;45.51;39.32;61.29;;
77729;Laerm;68312;53.502;10.030;2023-05-15T12:45:43;49.24;40.27;69.01;;
77729;Laerm;68312;53.502;10.030;2023-05-15T12:48:14;46.11;41.79;56.58;;
77729;Laerm;68312;53.502;10.030;2023-05-15T12:50:39;46.77;41.72;55.59;;
77729;Laerm;68312;53.502;10.030;2023-05-15T12:53:05;46.80;43.59;56.06;;
77729;Laerm;68312;53.502;10.030;2023-05-15T12:55:34;54.74;45.08;64.65;;
77729;Laerm;68312;53.502;10.030;2023-05-15T12:58:05;67.99;59.93;76.83;;
77729;Laerm;68312;53.502;10.030;2023-05-15T13:00:34;60.84;51.48;74.40;;
77729;Laerm;68312;53.502;10.030;2023-05-15T13:03:01;54.88;49.93;67.93;;
77729;Laerm;68312;53.502;10.030;2023-05-15T13:05:31;54.85;50.64;68.17;;
77729;Laerm;68312;53.502;10.030;2023-05-15T13:08:02;58.11;50.81;73.26;;
77729;Laerm;68312;53.502;10.030;2023-05-15T13:10:32;60.36;55.91;66.08;;
77729;Laerm;68312;53.502;10.030;2023-05-15T13:13:01;54.95;50.28;62.90;;
77729;Laerm;68312;53.502;10.030;2023-05-15T13:15:43;52.06;46.48;64.47;;
77729;Laerm;68312;53.502;10.030;2023-05-15T13:18:15;51.81;45.88;63.42;;
77729;Laerm;68312;53.502;10.030;2023-05-15T13:20:49;48.89;44.94;62.72;;
77729;Laerm;68312;53.502;10.030;2023-05-15T13:23:20;50.59;45.54;65.03;;
77729;Laerm;68312;53.502;10.030;2023-05-15T13:25:46;50.38;44.12;69.26;;
77729;Laerm;68312;53.502;10.030;2023-05-15T13:28:13;47.00;42.07;58.36;;
77729;Laerm;68312;53.502;10.030;2023-05-15T13:30:39;47.35;41.88;60.59;;
77729;Laerm;68312;53.502;10.030;2023-05-15T13:33:05;48.13;42.09;65.43;;
77729;Laerm;68312;53.502;10.030;2023-05-15T13:35:31;47.17;41.17;67.09;;
77729;Laerm;68312;53.502;10.030;2023-05-15T13:37:56;47.71;42.93;55.18;;
77729;Laerm;68312;53.502;10.030;2023-05-15T13:40:22;52.60;43.58;68.02;;
77729;Laerm;68312;53.502;10.030;2023-05-15T13:42:48;45.89;41.62;59.39;;
77729;Laerm;68312;53.502;10.030;2023-05-15T13:45:15;44.98;41.21;57.37;;
77729;Laerm;68312;53.502;10.030;2023-05-15T13:47:41;46.41;41.47;59.27;;
77729;Laerm;68312;53.502;10.030;2023-05-15T13:50:13;48.87;42.75;61.25;;
77729;Laerm;68312;53.502;10.030;2023-05-15T13:52:41;47.42;42.24;62.19;;